Milwaukee, Wisconsin
Traffic Map
Current Weather Conditions
Milwaukee, Wisconsin
Few Clouds
Few Clouds
20°
Feels Like: 20°
Wind Chill: 20° Ceiling: Unl
Heat Index: 20° Visibility: 10mi
Dew Point: -4° Wind: 18mph
Humidity: 19% Direction: 290° (WNW)
Pressure: 29.88in Gusts: 29mph
Raw Report DataKMKE 252052Z 29016G25KT 10SM FEW200 20/M04 A2988 RMK AO2 PK WND 28026/1957 SLP117 T02001044 56005
Traffic Incident Summary
Active as of:
Severity:
Category:
InformationThere was an issue retrieving the traffic information for this location. Please try a different location or try again shortly.
Advertisements
Track Severe Weather on mobile